createdAt,value
2019-02-07T00:01:45.794Z,77.26
2019-02-07T00:04:15.571Z,76.82
2019-02-07T00:06:45.348Z,77.10
2019-02-07T00:09:15.216Z,76.79
2019-02-07T00:11:45.293Z,76.90
2019-02-07T00:14:16.362Z,77.11
2019-02-07T00:16:46.264Z,77.30
2019-02-07T00:19:17.516Z,77.34
2019-02-07T00:21:48.174Z,77.72
2019-02-07T00:24:19.544Z,77.44
2019-02-07T00:26:50.967Z,77.74
2019-02-07T00:29:20.732Z,77.65
2019-02-07T00:31:50.572Z,78.98
2019-02-07T00:34:20.376Z,79.84
2019-02-07T00:36:50.159Z,80.91
2019-02-07T00:39:20.335Z,81.31
2019-02-07T00:41:50.328Z,80.44
2019-02-07T00:44:20.148Z,79.69
2019-02-07T00:46:49.928Z,79.12
2019-02-07T00:49:19.780Z,79.18
2019-02-07T00:51:49.592Z,77.63
2019-02-07T00:54:20.320Z,77.11
2019-02-07T00:56:49.999Z,76.58
2019-02-07T00:59:19.807Z,76.97
2019-02-07T01:01:50.781Z,78.76
2019-02-07T01:04:21.669Z,78.51
2019-02-07T01:06:51.855Z,79.63
2019-02-07T01:09:27.332Z,80.69
2019-02-07T01:11:57.096Z,80.87
2019-02-07T01:14:27.099Z,80.74
2019-02-07T01:16:56.738Z,80.49
2019-02-07T01:19:28.779Z,79.59
2019-02-07T01:21:58.742Z,78.46
2019-02-07T01:24:29.707Z,78.21
2019-02-07T01:27:00.966Z,78.36
2019-02-07T01:29:30.544Z,79.18
2019-02-07T01:32:02.069Z,79.81
2019-02-07T01:34:31.871Z,79.57
2019-02-07T01:37:01.577Z,80.48
2019-02-07T01:39:31.412Z,80.66
2019-02-07T01:42:01.185Z,81.08
2019-02-07T01:44:31.014Z,80.40
2019-02-07T01:47:00.803Z,79.58
2019-02-07T01:49:31.464Z,79.10
2019-02-07T01:52:01.286Z,77.94
2019-02-07T01:54:31.077Z,78.47
2019-02-07T01:57:00.928Z,79.92
2019-02-07T01:59:30.750Z,81.45
2019-02-07T02:02:01.028Z,81.58
2019-02-07T02:04:31.046Z,82.37
2019-02-07T02:07:01.830Z,82.43
2019-02-07T02:09:31.639Z,82.43
2019-02-07T02:12:03.186Z,80.51
2019-02-07T02:14:34.509Z,79.75
2019-02-07T02:17:05.961Z,80.87
2019-02-07T02:19:37.264Z,80.35
2019-02-07T02:22:07.038Z,79.29
2019-02-07T02:24:36.950Z,78.95
2019-02-07T02:27:06.755Z,78.43
2019-02-07T02:29:37.056Z,78.37
2019-02-07T02:32:06.872Z,78.53
2019-02-07T02:34:36.670Z,77.69
2019-02-07T02:37:06.468Z,77.99
2019-02-07T02:39:37.751Z,77.78
2019-02-07T02:42:07.566Z,77.89
2019-02-07T02:44:38.430Z,78.08
2019-02-07T02:47:10.703Z,79.32
2019-02-07T02:49:41.429Z,79.72
2019-02-07T02:52:12.632Z,80.56
2019-02-07T02:54:44.075Z,82.75
2019-02-07T02:57:14.146Z,83.07
2019-02-07T02:59:45.567Z,82.78
2019-02-07T03:02:22.885Z,82.79
2019-02-07T03:05:03.537Z,82.54
2019-02-07T03:07:50.833Z,81.89
2019-02-07T03:10:25.182Z,82.65
2019-02-07T03:12:56.535Z,82.04
2019-02-07T03:15:27.874Z,80.31
2019-02-07T03:18:03.834Z,79.70
2019-02-07T03:20:41.605Z,78.85
2019-02-07T03:23:13.020Z,78.89
2019-02-07T03:25:48.680Z,79.64
2019-02-07T03:28:32.254Z,78.54
2019-02-07T03:31:09.663Z,78.02
2019-02-07T03:33:45.164Z,77.76
2019-02-07T03:36:22.838Z,77.30
2019-02-07T03:39:05.212Z,77.92
2019-02-07T03:41:36.790Z,78.42
2019-02-07T03:44:09.893Z,78.05
2019-02-07T03:46:41.238Z,78.06
2019-02-07T03:49:19.539Z,80.61
2019-02-07T03:52:06.983Z,81.42
2019-02-07T03:54:55.384Z,81.66
2019-02-07T03:57:26.733Z,79.96
2019-02-07T04:00:11.356Z,78.37
2019-02-07T04:02:47.104Z,77.58
2019-02-07T04:05:19.761Z,78.08
2019-02-07T04:08:01.234Z,78.79
2019-02-07T04:10:38.861Z,79.05
2019-02-07T04:13:11.902Z,78.69
2019-02-07T04:15:46.093Z,78.21
2019-02-07T04:18:19.104Z,78.42
2019-02-07T04:20:50.453Z,78.46
2019-02-07T04:23:25.342Z,78.32
2019-02-07T04:26:00.504Z,78.27
2019-02-07T04:28:34.564Z,78.58
2019-02-07T04:31:19.438Z,78.23
2019-02-07T04:34:07.042Z,77.59
2019-02-07T04:36:44.326Z,77.71
2019-02-07T04:39:35.835Z,77.16
2019-02-07T04:42:15.959Z,76.91
2019-02-07T04:48:06.572Z,77.72
2019-02-07T04:50:43.759Z,78.20
2019-02-07T04:53:28.769Z,77.66
2019-02-07T04:56:12.769Z,77.43
2019-02-07T04:58:50.467Z,77.16
2019-02-07T05:01:25.300Z,77.04
2019-02-07T05:03:56.659Z,77.66
2019-02-07T05:06:33.732Z,77.81
2019-02-07T05:09:11.892Z,77.60
2019-02-07T05:11:58.928Z,87.22
2019-02-07T05:14:47.356Z,74.28
2019-02-07T05:17:20.385Z,67.70
2019-02-07T05:19:51.786Z,65.18
2019-02-07T05:22:25.835Z,68.56
2019-02-07T05:25:06.741Z,70.60
2019-02-07T05:27:53.443Z,72.09
2019-02-07T05:30:25.453Z,73.36
2019-02-07T05:33:08.438Z,75.03
2019-02-07T05:35:40.206Z,74.13
2019-02-07T05:38:30.253Z,74.13
2019-02-07T05:41:07.572Z,74.81
2019-02-07T05:43:39.841Z,74.72
2019-02-07T05:46:20.232Z,74.64
2019-02-07T05:48:55.978Z,75.45
2019-02-07T05:51:44.028Z,75.77
2019-02-07T05:54:31.447Z,75.76
2019-02-07T05:57:14.986Z,75.83
2019-02-07T05:59:54.716Z,76.06
2019-02-07T06:02:28.801Z,76.21
2019-02-07T06:05:16.283Z,76.39
2019-02-07T06:07:56.894Z,76.18
2019-02-07T06:10:31.087Z,76.91
2019-02-07T06:13:18.983Z,76.54
2019-02-07T06:16:07.452Z,76.05
2019-02-07T06:18:53.469Z,76.23
2019-02-07T06:21:30.436Z,75.99
2019-02-07T06:24:07.728Z,76.18
2019-02-07T06:26:44.453Z,76.09
2019-02-07T06:29:18.604Z,75.97
2019-02-07T06:31:55.587Z,75.50
2019-02-07T06:34:29.102Z,75.51
2019-02-07T06:37:15.341Z,75.31
2019-02-07T06:39:58.835Z,75.28
2019-02-07T06:42:32.544Z,75.01
2019-02-07T06:45:06.548Z,74.94
2019-02-07T06:47:54.127Z,76.58
2019-02-07T06:50:31.168Z,76.28
2019-02-07T06:53:16.028Z,75.33
2019-02-07T06:55:57.001Z,75.97
2019-02-07T06:58:31.145Z,76.30
2019-02-07T07:01:10.648Z,76.33
2019-02-07T07:03:48.243Z,75.88
2019-02-07T07:06:22.805Z,75.46
2019-02-07T07:08:55.153Z,75.36
2019-02-07T07:11:38.533Z,75.33
2019-02-07T07:14:30.144Z,74.37
2019-02-07T07:17:02.962Z,73.75
2019-02-07T07:19:44.625Z,73.71
2019-02-07T07:22:33.983Z,73.62
2019-02-07T07:25:08.654Z,73.42
2019-02-07T07:27:40.079Z,73.03
2019-02-07T07:30:15.414Z,72.17
2019-02-07T07:32:46.767Z,72.45
2019-02-07T07:35:18.185Z,72.24
2019-02-07T07:38:08.454Z,71.44
2019-02-07T07:40:43.128Z,71.74
2019-02-07T07:43:17.599Z,71.10
2019-02-07T07:46:03.907Z,71.14
2019-02-07T07:48:45.215Z,70.60
2019-02-07T07:51:25.511Z,70.54
2019-02-07T07:54:02.995Z,70.72
2019-02-07T07:56:34.634Z,70.19
2019-02-07T07:59:24.544Z,69.60
2019-02-07T08:01:58.962Z,69.83
2019-02-07T08:04:39.163Z,69.81
2019-02-07T08:07:16.587Z,70.21
2019-02-07T08:09:49.738Z,70.23
2019-02-07T08:12:36.207Z,70.34
2019-02-07T08:15:31.424Z,70.34
2019-02-07T08:18:21.917Z,69.39
2019-02-07T08:20:53.546Z,69.24
2019-02-07T08:23:28.062Z,68.95
2019-02-07T08:26:03.342Z,68.82
2019-02-07T08:28:43.786Z,67.72
2019-02-07T08:31:15.164Z,66.87
2019-02-07T08:33:52.663Z,66.87
2019-02-07T08:36:32.965Z,65.99
2019-02-07T08:39:04.386Z,65.99
2019-02-07T08:41:44.781Z,65.78
2019-02-07T08:44:31.557Z,64.44
2019-02-07T08:47:21.087Z,63.58
2019-02-07T08:50:10.426Z,62.78
2019-02-07T08:52:57.903Z,62.05
2019-02-07T08:55:47.446Z,61.46
2019-02-07T08:58:18.784Z,61.28
2019-02-07T09:00:52.765Z,61.20
2019-02-07T09:03:24.119Z,60.67
2019-02-07T09:06:11.661Z,60.63
2019-02-07T09:08:58.370Z,60.37
2019-02-07T09:11:47.709Z,59.65
2019-02-07T09:14:19.128Z,59.16
2019-02-07T09:16:53.014Z,59.57
2019-02-07T09:19:36.643Z,59.18
2019-02-07T09:22:23.887Z,58.77
2019-02-07T09:25:01.417Z,58.45
2019-02-07T09:27:44.588Z,58.58
2019-02-07T09:30:38.301Z,58.31
2019-02-07T09:33:09.659Z,58.26
2019-02-07T09:35:41.160Z,57.73
2019-02-07T09:38:12.545Z,58.26
2019-02-07T09:40:43.912Z,58.08
2019-02-07T09:43:15.455Z,58.50
2019-02-07T09:45:53.094Z,58.55
2019-02-07T09:48:27.465Z,58.05
2019-02-07T09:51:01.583Z,58.22
2019-02-07T09:53:35.820Z,57.98
2019-02-07T09:56:23.735Z,58.12
2019-02-07T09:58:55.167Z,58.19
2019-02-07T10:01:29.507Z,57.79
2019-02-07T10:04:00.912Z,58.40
2019-02-07T10:06:44.557Z,57.37
2019-02-07T10:09:21.983Z,57.58
2019-02-07T10:12:09.843Z,57.60
2019-02-07T10:14:56.656Z,57.78
2019-02-07T10:17:36.880Z,57.95
2019-02-07T10:20:10.563Z,57.71
2019-02-07T10:22:45.039Z,57.99
2019-02-07T10:25:16.562Z,57.95
2019-02-07T10:27:47.899Z,57.31
2019-02-07T10:30:31.265Z,57.83
2019-02-07T10:33:16.163Z,58.10
2019-02-07T10:35:59.182Z,57.95
2019-02-07T10:38:42.689Z,58.57
2019-02-07T10:41:20.013Z,58.59
2019-02-07T10:43:51.373Z,59.25
2019-02-07T10:46:31.743Z,59.21
2019-02-07T10:49:08.583Z,58.37
2019-02-07T10:51:45.792Z,59.30
2019-02-07T10:54:23.109Z,59.62
2019-02-07T10:57:00.504Z,59.54
2019-02-07T10:59:40.558Z,60.40
2019-02-07T11:02:28.087Z,60.97
2019-02-07T11:05:08.451Z,61.83
2019-02-07T11:07:56.324Z,61.47
2019-02-07T11:10:45.416Z,61.04
2019-02-07T11:13:16.824Z,60.50
2019-02-07T11:15:48.188Z,60.24
2019-02-07T11:18:37.510Z,59.79
2019-02-07T11:21:11.584Z,59.43
2019-02-07T11:23:57.969Z,60.27
2019-02-07T11:26:32.606Z,59.92
2019-02-07T11:29:16.170Z,59.84
2019-02-07T11:31:47.516Z,59.76
2019-02-07T11:34:35.721Z,60.08
2019-02-07T11:37:13.207Z,60.03
2019-02-07T11:39:47.148Z,58.99
2019-02-07T11:42:18.539Z,59.55
2019-02-07T11:44:55.585Z,59.11
2019-02-07T11:47:35.832Z,59.00
2019-02-07T11:50:22.267Z,58.77
2019-02-07T11:52:59.643Z,58.00
2019-02-07T11:55:49.119Z,58.04
2019-02-07T11:58:36.573Z,58.11
2019-02-07T12:01:08.143Z,57.86
2019-02-07T12:03:54.576Z,57.78
2019-02-07T12:06:28.651Z,57.72
2019-02-07T12:09:02.815Z,58.01
2019-02-07T12:11:34.164Z,58.13
2019-02-07T12:14:08.888Z,57.25
2019-02-07T12:16:52.487Z,57.12
2019-02-07T12:19:27.183Z,57.54
2019-02-07T12:22:16.106Z,57.74
2019-02-07T12:24:51.190Z,57.81
2019-02-07T12:27:25.321Z,57.86
2019-02-07T12:30:14.207Z,58.43
2019-02-07T12:32:45.653Z,58.87
2019-02-07T12:35:18.926Z,58.52
2019-02-07T12:38:07.214Z,57.44
2019-02-07T12:40:41.348Z,57.63
2019-02-07T12:43:15.651Z,56.81
2019-02-07T12:46:03.269Z,56.89
2019-02-07T12:48:35.662Z,56.94
2019-02-07T12:51:20.625Z,57.20
2019-02-07T12:53:52.234Z,57.10
2019-02-07T12:56:26.642Z,56.75
2019-02-07T12:59:00.998Z,56.53
2019-02-07T13:01:38.433Z,56.72
2019-02-07T13:04:17.323Z,57.03
2019-02-07T13:06:51.462Z,56.82
2019-02-07T13:09:37.887Z,57.09
2019-02-07T13:12:19.630Z,57.03
2019-02-07T13:14:56.942Z,57.88
2019-02-07T13:17:28.330Z,57.95
2019-02-07T13:20:06.047Z,58.46
2019-02-07T13:22:55.578Z,58.87
2019-02-07T13:25:27.710Z,59.33
2019-02-07T13:28:05.092Z,59.66
2019-02-07T13:30:42.537Z,59.80
2019-02-07T13:33:31.289Z,60.23
2019-02-07T13:36:18.155Z,60.46
2019-02-07T13:38:55.648Z,60.42
2019-02-07T13:41:30.087Z,60.96
2019-02-07T13:44:13.327Z,61.37
2019-02-07T13:47:03.095Z,61.69
2019-02-07T13:49:51.381Z,62.18
2019-02-07T13:52:22.356Z,62.27
2019-02-07T13:55:10.994Z,62.42
2019-02-07T13:57:51.626Z,62.65
2019-02-07T14:00:29.402Z,62.82
2019-02-07T14:03:16.828Z,62.87
2019-02-07T14:05:48.213Z,62.84
2019-02-07T14:08:20.006Z,62.83
2019-02-07T14:11:09.666Z,62.96
2019-02-07T14:13:47.154Z,63.03
2019-02-07T14:16:21.464Z,63.07
2019-02-07T14:18:55.737Z,62.54
2019-02-07T14:21:27.981Z,62.44
2019-02-07T14:23:59.315Z,62.45
2019-02-07T14:26:47.799Z,61.96
2019-02-07T14:29:19.150Z,61.09
2019-02-07T14:31:53.144Z,60.40
2019-02-07T14:34:33.339Z,59.68
2019-02-07T14:37:04.989Z,59.15
2019-02-07T14:39:39.148Z,59.21
2019-02-07T14:42:13.237Z,58.73
2019-02-07T14:44:57.837Z,58.72
2019-02-07T14:47:27.656Z,58.41
2019-02-07T14:49:57.467Z,58.78
2019-02-07T14:52:27.258Z,59.58
2019-02-07T14:54:57.594Z,60.91
2019-02-07T14:57:27.799Z,59.81
2019-02-07T14:59:57.961Z,59.34
2019-02-07T15:02:27.575Z,58.12
2019-02-07T15:04:57.413Z,57.93
2019-02-07T15:07:28.208Z,57.26
2019-02-07T15:09:58.907Z,57.55
2019-02-07T15:12:28.720Z,58.15
2019-02-07T15:14:58.692Z,58.57
2019-02-07T15:17:29.400Z,59.17
2019-02-07T15:19:59.698Z,59.72
2019-02-07T15:22:29.505Z,60.12
2019-02-07T15:24:59.273Z,60.24
2019-02-07T15:27:29.043Z,60.46
2019-02-07T15:29:58.901Z,60.52
2019-02-07T15:32:28.690Z,60.68
2019-02-07T15:34:58.452Z,60.94
2019-02-07T15:37:28.142Z,61.15
2019-02-07T15:39:57.948Z,61.34
2019-02-07T15:42:27.672Z,61.48
2019-02-07T15:44:57.497Z,61.70
2019-02-07T15:47:27.262Z,61.90
2019-02-07T15:49:57.053Z,62.19
2019-02-07T15:52:26.879Z,62.50
2019-02-07T15:54:56.687Z,62.57
2019-02-07T15:57:26.513Z,62.74
2019-02-07T15:59:56.515Z,62.94
2019-02-07T16:02:26.437Z,66.47
2019-02-07T16:04:56.620Z,61.91
2019-02-07T16:07:27.387Z,60.24
2019-02-07T16:09:58.934Z,62.87
2019-02-07T16:12:28.999Z,60.82
2019-02-07T16:14:58.797Z,59.75
2019-02-07T16:17:28.640Z,60.26
2019-02-07T16:19:58.261Z,60.90
2019-02-07T16:22:28.068Z,61.67
2019-02-07T16:24:57.931Z,62.53
2019-02-07T16:27:27.743Z,63.04
2019-02-07T16:29:57.522Z,62.50
2019-02-07T16:32:27.327Z,63.03
2019-02-07T16:34:57.098Z,63.92
2019-02-07T16:37:26.933Z,64.56
2019-02-07T16:39:57.302Z,65.22
2019-02-07T16:42:27.190Z,65.80
2019-02-07T16:44:56.946Z,66.38
2019-02-07T16:47:26.611Z,66.61
2019-02-07T16:49:56.438Z,66.84
2019-02-07T16:52:26.147Z,67.40
2019-02-07T16:54:56.197Z,67.79
2019-02-07T16:57:26.058Z,68.01
2019-02-07T16:59:55.845Z,68.46
2019-02-07T17:02:25.706Z,68.69
2019-02-07T17:04:55.517Z,68.89
2019-02-07T17:07:25.300Z,69.14
2019-02-07T17:09:55.528Z,69.12
2019-02-07T17:12:25.354Z,69.36
2019-02-07T17:14:55.188Z,69.52
2019-02-07T17:17:24.886Z,69.53
2019-02-07T17:19:54.694Z,69.49
2019-02-07T17:22:24.465Z,69.62
2019-02-07T17:24:54.348Z,69.78
2019-02-07T17:27:24.144Z,70.50
2019-02-07T17:29:54.060Z,73.27
2019-02-07T17:32:23.926Z,70.04
2019-02-07T17:34:53.681Z,69.92
2019-02-07T17:37:23.603Z,70.11
2019-02-07T17:39:53.412Z,70.87
2019-02-07T17:42:23.226Z,71.38
2019-02-07T17:44:53.217Z,70.24
2019-02-07T17:47:22.847Z,70.24
2019-02-07T17:49:52.663Z,69.98
2019-02-07T17:52:22.848Z,69.98
2019-02-07T17:54:55.852Z,69.79
2019-02-07T17:57:25.603Z,69.65
2019-02-07T17:59:55.413Z,70.56
2019-02-07T18:02:25.606Z,71.02
2019-02-07T18:04:55.365Z,71.02
2019-02-07T18:07:25.323Z,71.53
2019-02-07T18:09:55.107Z,71.09
2019-02-07T18:12:24.979Z,71.09
2019-02-07T18:14:55.036Z,71.67
2019-02-07T18:17:24.843Z,72.58
2019-02-07T18:19:54.645Z,72.87
2019-02-07T18:22:24.477Z,73.18
2019-02-07T18:24:55.196Z,73.18
2019-02-07T18:27:24.937Z,73.24
2019-02-07T18:29:54.720Z,73.40
2019-02-07T18:32:24.508Z,73.53
2019-02-07T18:34:54.276Z,73.83
2019-02-07T18:37:24.151Z,74.01
2019-02-07T18:39:54.026Z,73.73
2019-02-07T18:42:23.907Z,73.73
2019-02-07T18:44:54.492Z,73.89
2019-02-07T18:47:24.306Z,73.59
2019-02-07T18:49:58.625Z,74.28
2019-02-07T18:52:32.229Z,74.27
2019-02-07T18:55:09.307Z,74.27
2019-02-07T18:57:39.764Z,73.90
2019-02-07T19:00:25.107Z,73.71
2019-02-07T19:02:54.864Z,73.75
2019-02-07T19:05:25.679Z,73.71
2019-02-07T19:07:57.716Z,73.87
2019-02-07T19:10:31.661Z,74.57
2019-02-07T19:13:02.032Z,77.21
2019-02-07T19:15:45.630Z,75.10
2019-02-07T19:18:15.479Z,74.84
2019-02-07T19:20:45.231Z,74.59
2019-02-07T19:23:14.964Z,74.68
2019-02-07T19:25:46.131Z,75.44
2019-02-07T19:28:15.887Z,75.18
2019-02-07T19:30:45.784Z,74.98
2019-02-07T19:33:15.531Z,75.19
2019-02-07T19:35:45.409Z,75.19
2019-02-07T19:38:15.282Z,74.28
2019-02-07T19:40:45.035Z,74.28
2019-02-07T19:43:14.773Z,75.26
2019-02-07T19:45:44.578Z,75.26
2019-02-07T19:48:14.343Z,76.04
2019-02-07T19:50:44.178Z,76.04
2019-02-07T19:53:13.935Z,76.52
2019-02-07T19:55:44.096Z,76.56
2019-02-07T19:58:13.863Z,76.60
2019-02-07T20:00:43.853Z,76.60
2019-02-07T20:03:13.644Z,76.81
2019-02-07T20:05:43.400Z,76.36
2019-02-07T20:08:13.980Z,77.50
2019-02-07T20:10:43.784Z,76.47
2019-02-07T20:13:13.529Z,76.47
2019-02-07T20:15:44.097Z,76.28
2019-02-07T20:18:13.900Z,76.69
2019-02-07T20:20:43.644Z,77.02
2019-02-07T20:23:13.402Z,77.02
2019-02-07T20:25:44.181Z,77.97
2019-02-07T20:28:13.938Z,77.97
2019-02-07T20:30:45.314Z,77.93
2019-02-07T20:33:15.087Z,77.93
2019-02-07T20:35:45.314Z,77.87
2019-02-07T20:38:15.214Z,77.99
2019-02-07T20:40:45.369Z,77.95
2019-02-07T20:43:15.275Z,78.17
2019-02-07T20:45:45.078Z,77.88
2019-02-07T20:48:14.850Z,77.87
2019-02-07T20:50:46.049Z,77.99
2019-02-07T20:53:17.427Z,77.93
2019-02-07T20:55:47.479Z,77.76
2019-02-07T20:58:17.394Z,77.69
2019-02-07T21:00:47.272Z,77.77
2019-02-07T21:03:16.963Z,77.83
2019-02-07T21:05:46.771Z,77.83
2019-02-07T21:08:16.642Z,78.17
2019-02-07T21:10:46.441Z,78.18
2019-02-07T21:13:16.292Z,78.19
2019-02-07T21:15:46.129Z,78.01
2019-02-07T21:18:15.951Z,78.05
2019-02-07T21:20:46.626Z,78.22
2019-02-07T21:23:16.425Z,78.22
2019-02-07T21:25:50.994Z,78.53
2019-02-07T21:28:20.834Z,78.53
2019-02-07T21:30:50.885Z,77.28
2019-02-07T21:33:20.824Z,77.28
2019-02-07T21:35:50.714Z,77.28
2019-02-07T21:38:20.552Z,77.87
2019-02-07T21:40:52.988Z,77.98
2019-02-07T21:43:23.759Z,78.37
2019-02-07T21:45:53.534Z,78.56
2019-02-07T21:48:23.431Z,78.39
2019-02-07T21:50:53.242Z,78.83
2019-02-07T21:53:23.007Z,79.06
2019-02-07T21:55:52.826Z,79.25
2019-02-07T21:58:22.521Z,79.20
2019-02-07T22:00:52.322Z,79.23
2019-02-07T22:03:23.052Z,79.39
2019-02-07T22:05:52.782Z,79.47
2019-02-07T22:08:22.748Z,79.47
2019-02-07T22:10:53.020Z,79.22
2019-02-07T22:13:25.815Z,78.91
2019-02-07T22:15:55.787Z,78.52
2019-02-07T22:18:26.241Z,78.73
2019-02-07T22:20:56.016Z,79.21
2019-02-07T22:23:26.067Z,79.42
2019-02-07T22:25:55.868Z,79.54
2019-02-07T22:28:25.647Z,79.36
2019-02-07T22:30:55.441Z,79.53
2019-02-07T22:33:25.215Z,79.71
2019-02-07T22:35:55.017Z,79.86
2019-02-07T22:38:24.808Z,79.57
2019-02-07T22:40:58.734Z,79.62
2019-02-07T22:43:31.725Z,79.40
2019-02-07T22:46:02.266Z,79.64
2019-02-07T22:48:32.045Z,79.97
2019-02-07T22:51:02.090Z,79.96
2019-02-07T22:53:33.414Z,79.62
2019-02-07T22:56:03.226Z,79.40
2019-02-07T22:58:33.030Z,79.20
2019-02-07T23:03:45.333Z,78.84
2019-02-07T23:06:15.082Z,79.04
2019-02-07T23:08:44.849Z,80.02
2019-02-07T23:11:27.013Z,79.86
2019-02-07T23:13:57.665Z,79.65
2019-02-07T23:16:28.278Z,80.11
2019-02-07T23:18:58.131Z,80.22
2019-02-07T23:21:27.895Z,80.01
2019-02-07T23:23:57.698Z,79.62
2019-02-07T23:26:28.409Z,79.66
2019-02-07T23:28:58.259Z,79.39
2019-02-07T23:31:28.296Z,79.32
2019-02-07T23:33:58.049Z,79.52
2019-02-07T23:36:27.874Z,79.28
2019-02-07T23:38:57.634Z,79.33
2019-02-07T23:41:27.487Z,79.44
2019-02-07T23:43:57.598Z,79.31
2019-02-07T23:46:27.634Z,79.10
2019-02-07T23:48:57.436Z,78.88
2019-02-07T23:51:27.123Z,79.26
2019-02-07T23:53:56.751Z,78.94
2019-02-07T23:56:27.615Z,78.90
2019-02-07T23:58:57.386Z,79.10
